ADDS METAR Data

Data at: 0456 UTC 20 Apr 2018

METAR for:KBHB (Bar Harbor/Hancock C, ME, US)
Text:KBHB 200356Z AUTO 30003KT 10SM -RA BKN046 OVC060 03/02 A2971 RMK AO2 RAE12B34 SLP066 P0000 T00330022 $
Temperature: 3.3°C ( 38°F)
Dewpoint: 2.2°C ( 36°F) [RH = 92%]
Pressure (altimeter):29.71 inches Hg (1006.2 mb) [Sea level pressure: 1006.6 mb]
Winds:from the WNW (300 degrees) at 3 MPH (3 knots; 1.5 m/s)
Visibility:10 or more sm (16+ km)
Ceiling:4600 feet AGL
Clouds: broken clouds at 4600 feet AGL, overcast cloud deck at 6000 feet AGL
Weather:-RA (light rain)
QC Flag:automated observation with no human augmentation; SOME DATA ABOVE MAY BE INACCURATE!!!"$" is an indication the sensor requires maintenance.